Time;durP1;ratioP1;P1;durP2;ratioP2;P2;SDS_P1;SDS_P2;PMS_P1;PMS_P2;Temp;Humidity;BMP_temperature;BMP_pressure;BME280_temperature;BME280_humidity;BME280_pressure;Samples;Min_cycle;Max_cycle;Signal;HPM_P1;HPM_P2
2021/08/19 00:02:38;;;;;;;8.73;4.67;;;;;;;16.23;55.69;98834.97;262686;1093;115536;-64
2021/08/19 00:07:42;;;;;;;8.75;5.00;;;;;;;16.19;55.55;98830.02;263222;1093;114881;-60
2021/08/19 00:12:46;;;;;;;11.07;5.30;;;;;;;16.13;55.58;98838.61;263130;1092;115428;-61
2021/08/19 00:17:50;;;;;;;10.58;5.00;;;;;;;16.09;55.80;98829.98;262846;1093;115587;-65
2021/08/19 00:22:55;;;;;;;7.43;4.63;;;;;;;16.08;55.97;98828.30;263189;1093;115439;-59
2021/08/19 00:27:59;;;;;;;8.47;5.23;;;;;;;16.07;56.07;98819.39;263040;1093;114720;-67
2021/08/19 00:33:02;;;;;;;7.93;4.77;;;;;;;16.06;56.24;98831.09;262272;1092;115507;-63
2021/08/19 00:38:07;;;;;;;;;;;;;;;16.05;56.23;98829.41;262956;1092;115520;-67
2021/08/19 00:43:10;;;;;;;6.70;4.57;;;;;;;16.01;56.90;98827.98;263138;1092;101683;-64
2021/08/19 00:48:14;;;;;;;7.63;5.10;;;;;;;16.03;56.57;98828.70;263252;1092;115052;-62
2021/08/19 00:53:18;;;;;;;7.70;4.77;;;;;;;16.02;56.50;98831.51;262842;1092;114819;-61
2021/08/19 00:58:21;;;;;;;10.15;5.08;;;;;;;16.04;56.65;98837.61;263178;1093;116855;-64
2021/08/19 01:03:26;;;;;;;7.40;4.28;;;;;;;16.07;56.76;98834.66;263099;1092;116050;-60
2021/08/19 01:08:29;;;;;;;10.57;4.90;;;;;;;16.11;56.68;98841.45;263297;1092;115395;-66
2021/08/19 01:13:34;;;;;;;8.85;4.90;;;;;;;16.12;56.09;98843.14;262597;1093;115864;-65
2021/08/19 01:18:43;;;;;;;7.03;4.80;;;;;;;16.12;56.68;98840.45;263208;1093;115428;-62
2021/08/19 01:23:46;;;;;;;10.93;4.73;;;;;;;16.10;57.00;98842.44;262996;1092;115758;-61
2021/08/19 01:28:55;;;;;;;8.60;5.13;;;;;;;16.11;57.28;98849.50;262491;1092;115147;-60
2021/08/19 01:33:59;;;;;;;8.93;5.03;;;;;;;16.05;56.47;98850.88;263173;1092;114985;-63
2021/08/19 01:39:02;;;;;;;8.00;4.73;;;;;;;15.97;57.03;98833.77;261884;1093;114932;-63
2021/08/19 01:44:06;;;;;;;8.30;4.70;;;;;;;15.93;56.92;98834.98;263371;1093;115382;-62
2021/08/19 01:49:09;;;;;;;8.83;4.90;;;;;;;15.90;57.14;98832.60;263172;1092;115146;-61
2021/08/19 01:54:13;;;;;;;6.77;4.73;;;;;;;15.89;57.40;98828.20;263202;1092;114924;-60
2021/08/19 01:59:17;;;;;;;6.43;4.57;;;;;;;15.88;57.37;98838.09;263225;1092;115468;-60
2021/08/19 02:04:20;;;;;;;8.57;4.90;;;;;;;15.89;57.53;98841.61;263145;1092;116380;-66
2021/08/19 02:09:24;;;;;;;7.43;4.50;;;;;;;15.89;57.48;98838.93;263126;1092;115297;-63
2021/08/19 02:14:27;;;;;;;7.73;4.90;;;;;;;15.91;57.61;98845.03;263149;1092;114783;-64
2021/08/19 02:19:31;;;;;;;8.25;5.03;;;;;;;15.92;57.45;98833.30;263243;1092;115763;-61
2021/08/19 02:24:34;;;;;;;9.63;4.90;;;;;;;15.95;57.97;98828.51;263234;1093;114545;-60
2021/08/19 02:29:38;;;;;;;10.07;5.27;;;;;;;15.97;57.61;98837.29;262985;1093;114809;-62
2021/08/19 02:34:41;;;;;;;7.38;4.68;;;;;;;15.99;57.93;98831.77;263167;1093;114872;-61
2021/08/19 02:39:45;;;;;;;5.75;3.10;;;;;;;15.98;57.98;98835.45;263374;1092;116698;-61
2021/08/19 02:44:49;;;;;;;8.87;4.83;;;;;;;16.01;57.97;98835.19;263196;1093;114717;-66
2021/08/19 02:49:52;;;;;;;8.93;4.33;;;;;;;15.98;57.80;98836.30;263318;1092;115012;-62
2021/08/19 02:54:56;;;;;;;8.97;4.90;;;;;;;15.97;58.00;98837.29;263037;1092;114945;-64
2021/08/19 03:00:00;;;;;;;10.77;5.63;;;;;;;15.94;58.37;98842.08;262211;1092;114864;-63
2021/08/19 03:05:05;;;;;;;;;;;;;;;15.87;58.11;98841.77;262205;1092;115402;-63
2021/08/19 03:10:09;;;;;;;11.33;5.30;;;;;;;15.77;57.98;98841.70;263283;1092;101106;-60
2021/08/19 03:15:13;;;;;;;8.60;5.10;;;;;;;15.71;58.45;98836.86;262884;1092;117173;-62
2021/08/19 03:20:17;;;;;;;10.73;5.15;;;;;;;15.68;58.45;98841.65;262950;1092;116546;-65
2021/08/19 03:25:20;;;;;;;10.25;5.50;;;;;;;15.67;58.57;98837.27;263292;1092;114807;-66
2021/08/19 03:30:24;;;;;;;8.83;4.40;;;;;;;15.72;58.66;98841.23;262673;1093;115121;-65
2021/08/19 03:35:28;;;;;;;7.30;4.70;;;;;;;15.77;58.92;98841.70;263224;1093;115527;-61
2021/08/19 03:40:33;;;;;;;9.17;5.23;;;;;;;15.81;58.96;98848.50;263101;1093;115056;-65
2021/08/19 03:45:38;;;;;;;128.57;114.77;;;;;;;15.85;59.10;98854.45;262939;1092;115122;-63
2021/08/19 03:50:42;;;;;;;11.87;7.80;;;;;;;15.99;59.39;98850.56;263135;1092;117835;-64
2021/08/19 03:55:46;;;;;;;8.60;4.90;;;;;;;15.98;59.09;98840.82;262756;1093;115759;-62
2021/08/19 04:00:50;;;;;;;77.10;58.43;;;;;;;16.14;60.66;98838.50;263182;1092;114356;-63
2021/08/19 04:05:55;;;;;;;10.13;7.03;;;;;;;17.19;61.03;98830.79;263190;1092;115998;-63
2021/08/19 04:10:59;;;;;;;11.55;5.33;;;;;;;17.24;58.68;98839.27;262615;1093;114953;-64
2021/08/19 04:16:02;;;;;;;7.57;4.30;;;;;;;16.98;57.82;98833.63;263333;1092;115439;-63
2021/08/19 04:21:06;;;;;;;8.48;4.45;;;;;;;16.75;57.91;98846.47;263171;1091;115427;-62
2021/08/19 04:26:11;;;;;;;10.90;4.77;;;;;;;16.60;57.80;98839.75;262847;1092;115075;-61
2021/08/19 04:31:14;;;;;;;10.95;4.10;;;;;;;16.47;58.28;98847.20;263265;1093;115495;-62
2021/08/19 04:36:18;;;;;;;20.37;14.30;;;;;;;16.62;59.92;98845.84;263256;1093;114975;-64
2021/08/19 04:41:21;;;;;;;8.63;4.50;;;;;;;16.81;58.70;98834.30;263118;1093;115232;-65
2021/08/19 04:46:26;;;;;;;6.80;4.40;;;;;;;16.77;58.53;98836.41;263138;1093;114639;-64
2021/08/19 04:51:30;;;;;;;10.17;4.30;;;;;;;16.68;58.36;98842.61;263243;1093;115088;-65
2021/08/19 04:56:37;;;;;;;8.40;4.10;;;;;;;16.61;58.33;98844.16;263378;1092;115174;-65
2021/08/19 05:01:42;;;;;;;10.27;3.70;;;;;;;16.58;58.49;98849.80;263128;1093;115271;-65
2021/08/19 05:06:45;;;;;;;7.50;3.50;;;;;;;16.63;59.12;98847.53;263054;1092;115486;-65
2021/08/19 05:11:49;;;;;;;9.40;4.17;;;;;;;16.78;59.13;98842.66;263207;1093;114929;-66
2021/08/19 05:16:53;;;;;;;8.20;3.87;;;;;;;16.88;59.28;98837.27;263203;1092;115447;-61
2021/08/19 05:21:56;;;;;;;6.28;3.60;;;;;;;16.91;59.06;98843.22;263104;1093;114599;-61
2021/08/19 05:27:00;;;;;;;6.93;3.53;;;;;;;16.93;58.91;98843.94;263116;1093;115815;-64
2021/08/19 05:32:04;;;;;;;10.20;4.47;;;;;;;16.90;58.76;98846.06;263343;1093;114649;-64
2021/08/19 05:37:08;;;;;;;7.68;3.83;;;;;;;16.90;59.35;98838.00;263231;1092;115188;-63
2021/08/19 05:42:11;;;;;;;7.30;3.73;;;;;;;16.91;59.00;98848.59;263057;1093;115160;-65
2021/08/19 05:47:15;;;;;;;9.53;4.43;;;;;;;16.95;59.40;98850.04;262357;1092;115946;-65
2021/08/19 05:52:18;;;;;;;8.63;4.03;;;;;;;17.00;59.00;98844.23;263213;1093;114801;-65
2021/08/19 05:57:22;;;;;;;10.93;3.60;;;;;;;17.05;59.50;98843.80;263155;1092;114806;-60
2021/08/19 06:02:25;;;;;;;11.00;3.30;;;;;;;17.14;59.66;98854.56;263331;1092;115395;-64
2021/08/19 06:07:29;;;;;;;8.90;3.10;;;;;;;17.26;59.69;98849.91;263221;1092;115633;-63
2021/08/19 06:12:33;;;;;;;6.17;3.20;;;;;;;17.39;59.87;98852.27;263140;1092;115533;-61
2021/08/19 06:17:37;;;;;;;4.95;2.83;;;;;;;17.52;59.67;98847.45;262604;1092;114669;-67
2021/08/19 06:22:41;;;;;;;5.50;2.45;;;;;;;17.60;59.67;98835.98;263125;1093;114849;-66
2021/08/19 06:27:45;;;;;;;5.47;2.50;;;;;;;17.63;59.22;98847.31;262709;1093;114806;-67
2021/08/19 06:32:48;;;;;;;4.20;2.53;;;;;;;17.65;59.49;98847.99;263114;1093;114666;-66
2021/08/19 06:37:54;;;;;;;3.40;2.40;;;;;;;17.68;59.49;98842.33;263261;1093;114912;-65
2021/08/19 06:42:57;;;;;;;4.25;2.55;;;;;;;17.72;59.36;98837.50;263110;1093;114840;-68
2021/08/19 06:48:01;;;;;;;4.20;2.47;;;;;;;17.78;59.73;98836.11;263038;1092;114860;-62
2021/08/19 06:53:04;;;;;;;9.50;2.80;;;;;;;17.84;59.49;98846.30;262921;1092;114893;-64
2021/08/19 06:58:09;;;;;;;8.08;2.73;;;;;;;17.96;59.44;98839.73;263148;1092;114517;-66
2021/08/19 07:03:14;;;;;;;5.10;2.23;;;;;;;18.13;59.71;98838.95;262818;1092;115277;-63
2021/08/19 07:08:18;;;;;;;6.53;2.70;;;;;;;18.33;59.33;98836.17;263251;1092;115030;-63
2021/08/19 07:13:22;;;;;;;6.13;2.38;;;;;;;18.49;59.29;98830.14;263122;1091;114840;-62
2021/08/19 07:18:25;;;;;;;5.10;1.90;;;;;;;18.63;59.10;98833.17;263165;1092;115230;-62
2021/08/19 07:23:29;;;;;;;6.95;2.00;;;;;;;18.76;59.06;98837.39;263138;1092;115040;-63
2021/08/19 07:28:32;;;;;;;2.63;1.93;;;;;;;18.84;58.90;98824.83;263144;1093;114855;-63
2021/08/19 07:33:36;;;;;;;3.95;2.28;;;;;;;18.93;58.69;98820.38;263159;1092;114505;-63
2021/08/19 07:38:40;;;;;;;3.18;2.05;;;;;;;19.03;58.48;98812.22;263286;1093;116572;-62
2021/08/19 07:43:45;;;;;;;5.80;2.53;;;;;;;19.18;59.01;98816.05;263131;1092;114777;-63
2021/08/19 07:48:48;;;;;;;3.80;2.27;;;;;;;19.33;58.27;98819.05;263034;1093;115220;-64
2021/08/19 07:53:52;;;;;;;9.73;5.63;;;;;;;19.49;58.78;98818.31;262752;1092;115188;-62
2021/08/19 07:58:58;;;;;;;8.75;2.58;;;;;;;19.62;58.42;98814.19;263135;1092;115169;-62
2021/08/19 08:04:03;;;;;;;4.73;2.60;;;;;;;19.73;58.12;98814.97;262975;1092;115409;-61
2021/08/19 08:09:07;;;;;;;3.80;2.40;;;;;;;19.80;57.92;98808.80;263165;1092;115255;-61
2021/08/19 08:14:11;;;;;;;3.25;2.13;;;;;;;19.89;58.11;98820.47;263274;1092;115414;-61
2021/08/19 08:19:18;;;;;;;3.90;2.15;;;;;;;19.99;57.78;98812.27;263315;1092;115215;-60
2021/08/19 08:24:22;;;;;;;5.27;2.13;;;;;;;20.04;57.42;98826.12;263132;1092;115296;-60
2021/08/19 08:29:26;;;;;;;3.40;2.30;;;;;;;20.08;57.41;98827.52;263137;1093;115208;-61
2021/08/19 08:34:30;;;;;;;;;;;;;;;20.12;57.23;98836.98;263188;1093;115207;-65
2021/08/19 08:39:37;;;;;;;3.37;2.80;;;;;;;20.18;57.01;98830.95;263430;1092;101595;-60
2021/08/19 08:44:43;;;;;;;3.17;2.23;;;;;;;20.23;56.96;98825.88;263262;1092;115201;-61
2021/08/19 08:49:47;;;;;;;5.37;2.50;;;;;;;20.31;57.07;98830.47;263138;1092;115083;-58
2021/08/19 08:54:51;;;;;;;3.18;2.10;;;;;;;20.37;57.02;98828.98;263087;1093;114758;-60
2021/08/19 08:59:55;;;;;;;4.58;2.38;;;;;;;20.46;56.93;98830.72;263224;1092;115403;-61
2021/08/19 09:05:18;;;;;;;4.90;1.98;;;;;;;20.51;56.62;98821.13;263092;1092;116037;-61
2021/08/19 09:10:28;;;;;;;3.60;2.13;;;;;;;20.56;56.94;98828.77;263277;1093;115277;-61
2021/08/19 09:15:33;;;;;;;2.90;2.10;;;;;;;20.61;56.61;98825.55;263362;1093;115208;-61
2021/08/19 09:20:40;;;;;;;3.23;2.30;;;;;;;20.68;56.50;98823.88;263196;1092;115120;-58
2021/08/19 09:25:45;;;;;;;3.40;2.20;;;;;;;20.72;56.41;98822.53;263092;1093;115031;-59
2021/08/19 09:30:53;;;;;;;11.57;2.43;;;;;;;20.75;56.06;98827.61;262569;1092;114525;-61
2021/08/19 09:36:00;;;;;;;4.10;2.20;;;;;;;20.78;55.89;98827.29;263133;1093;115816;-61
2021/08/19 09:41:13;;;;;;;1.90;1.70;;;;;;;20.80;56.01;98827.98;263118;1092;115410;-61
2021/08/19 09:46:37;;;;;;;3.00;1.65;;;;;;;20.85;55.84;98827.47;263168;1092;115114;-61
2021/08/19 09:51:41;;;;;;;2.73;2.00;;;;;;;20.90;55.53;98819.72;263118;1093;115235;-61
2021/08/19 09:56:51;;;;;;;2.50;1.73;;;;;;;20.95;55.47;98818.19;262804;1092;114907;-61
2021/08/19 10:01:56;;;;;;;2.63;1.60;;;;;;;21.06;54.75;98818.88;263204;1092;114505;-64
2021/08/19 10:07:02;;;;;;;3.47;1.73;;;;;;;21.14;55.18;98810.78;263143;1092;115711;-61
2021/08/19 10:12:08;;;;;;;2.67;1.87;;;;;;;21.26;54.62;98815.70;263221;1092;116944;-62
2021/08/19 10:17:13;;;;;;;8.47;1.97;;;;;;;21.41;54.84;98813.19;262750;1093;115144;-61
2021/08/19 10:22:19;;;;;;;5.00;1.83;;;;;;;21.43;54.54;98811.17;263118;1092;115511;-60
2021/08/19 10:27:25;;;;;;;2.73;1.70;;;;;;;21.47;54.13;98825.21;262100;1092;117764;-61
2021/08/19 10:32:39;;;;;;;2.07;1.50;;;;;;;21.57;54.26;98814.17;263239;1093;115314;-60
2021/08/19 10:37:46;;;;;;;1.70;1.33;;;;;;;21.68;53.96;98808.42;263225;1092;115037;-60
2021/08/19 10:42:51;;;;;;;2.90;1.83;;;;;;;21.87;53.75;98802.61;262989;1092;115447;-61
2021/08/19 10:48:02;;;;;;;4.73;1.53;;;;;;;22.06;53.65;98801.38;263281;1093;115146;-64
2021/08/19 10:53:14;;;;;;;1.97;1.60;;;;;;;22.10;52.42;98816.27;263276;1092;115254;-65
2021/08/19 10:58:25;;;;;;;4.07;1.30;;;;;;;22.05;52.28;98796.99;263139;1092;115007;-64
2021/08/19 11:03:38;;;;;;;2.23;1.40;;;;;;;22.04;51.79;98797.16;263120;1092;116174;-66
2021/08/19 11:08:48;;;;;;;4.40;1.30;;;;;;;22.02;51.31;98788.37;263247;1092;115063;-65
2021/08/19 11:14:08;;;;;;;2.97;1.50;;;;;;;22.08;51.62;98790.36;263052;1093;114985;-65
2021/08/19 11:19:18;;;;;;;5.77;1.57;;;;;;;22.11;51.10;98795.43;263152;1093;114781;-65
2021/08/19 11:24:24;;;;;;;2.13;1.50;;;;;;;22.06;51.07;98792.41;263249;1092;115169;-67
2021/08/19 11:29:46;;;;;;;37.10;30.47;;;;;;;22.02;51.11;98785.66;263107;1092;115153;-62
2021/08/19 11:35:09;;;;;;;3.73;2.23;;;;;;;22.08;50.90;98790.36;262912;1092;115440;-65
2021/08/19 11:40:25;;;;;;;1.73;1.58;;;;;;;22.12;50.70;98791.72;263179;1093;115053;-65
2021/08/19 11:45:29;;;;;;;5.50;1.80;;;;;;;22.13;51.13;98779.84;263165;1093;114973;-65
2021/08/19 11:50:33;;;;;;;4.93;1.78;;;;;;;22.15;50.93;98781.41;263373;1092;115409;-66
2021/08/19 11:55:37;;;;;;;3.20;1.75;;;;;;;22.16;50.57;98780.38;263107;1093;114995;-64
2021/08/19 12:01:02;;;;;;;1.77;1.57;;;;;;;22.26;50.41;98774.75;263184;1093;115118;-64
2021/08/19 12:06:18;;;;;;;2.10;1.57;;;;;;;22.62;49.71;98768.78;263160;1092;115888;-65
2021/08/19 12:11:25;;;;;;;1.95;1.30;;;;;;;22.99;49.23;98780.78;263274;1092;114901;-66
2021/08/19 12:16:48;;;;;;;1.65;1.40;;;;;;;23.07;48.33;98786.17;263327;1093;115073;-64
2021/08/19 12:22:00;;;;;;;2.57;1.57;;;;;;;23.23;48.85;98775.16;263154;1093;115199;-65
2021/08/19 12:27:15;;;;;;;3.23;1.50;;;;;;;23.31;48.34;98776.98;263304;1092;115229;-65
2021/08/19 12:32:28;;;;;;;3.30;1.60;;;;;;;23.34;47.78;98785.60;263204;1092;114813;-66
2021/08/19 12:37:35;;;;;;;1.93;1.38;;;;;;;23.27;47.58;98778.38;263160;1093;115278;-65
2021/08/19 12:42:40;;;;;;;3.33;1.50;;;;;;;23.14;47.58;98776.27;263212;1093;115099;-64
2021/08/19 12:47:46;;;;;;;4.60;1.70;;;;;;;23.00;47.42;98775.19;262747;1093;115421;-66
2021/08/19 12:52:52;;;;;;;3.97;1.40;;;;;;;22.85;47.42;98782.38;263182;1092;114411;-64
2021/08/19 12:57:58;;;;;;;3.90;1.50;;;;;;;22.66;47.08;98776.41;263175;1093;114965;-64
2021/08/19 13:03:03;;;;;;;2.87;1.50;;;;;;;22.51;47.34;98789.02;263390;1092;115011;-65
2021/08/19 13:08:07;;;;;;;1.93;1.30;;;;;;;22.42;47.26;98780.09;263148;1092;115175;-65
2021/08/19 13:13:11;;;;;;;2.48;1.33;;;;;;;22.40;47.12;98773.16;263186;1093;115384;-65
2021/08/19 13:18:14;;;;;;;3.73;1.43;;;;;;;22.41;47.26;98782.97;263170;1092;115270;-66
2021/08/19 13:23:19;;;;;;;3.13;1.78;;;;;;;22.38;47.53;98778.77;263181;1093;114898;-65
2021/08/19 13:28:23;;;;;;;4.00;1.67;;;;;;;22.34;48.02;98776.56;263145;1093;115134;-66
2021/08/19 13:33:27;;;;;;;4.30;1.53;;;;;;;22.34;47.79;98771.98;263213;1092;115119;-65
2021/08/19 13:38:31;;;;;;;3.73;1.30;;;;;;;22.59;48.56;98780.02;263245;1093;115395;-64
2021/08/19 13:43:34;;;;;;;2.33;1.50;;;;;;;23.05;48.26;98782.78;263136;1093;115032;-65
2021/08/19 13:48:38;;;;;;;6.10;2.53;;;;;;;23.49;47.31;98788.34;263144;1092;115119;-66
2021/08/19 13:53:42;;;;;;;2.53;1.58;;;;;;;23.81;47.00;98781.78;263262;1092;115006;-66
2021/08/19 13:58:46;;;;;;;2.93;1.60;;;;;;;23.92;46.50;98779.63;263536;1093;115570;-66
2021/08/19 14:03:49;;;;;;;5.58;2.13;;;;;;;23.97;46.14;98772.59;263126;1093;115194;-66
2021/08/19 14:08:53;;;;;;;2.23;1.20;;;;;;;24.02;45.94;98774.77;263359;1093;114686;-68
2021/08/19 14:13:57;;;;;;;2.20;1.55;;;;;;;24.07;46.11;98778.58;263154;1093;114932;-66
2021/08/19 14:19:01;;;;;;;3.48;1.70;;;;;;;24.07;45.63;98781.30;263411;1093;115113;-68
2021/08/19 14:24:05;;;;;;;4.18;1.60;;;;;;;23.89;45.09;98788.16;263129;1092;115321;-67
2021/08/19 14:29:09;;;;;;;5.38;1.83;;;;;;;23.71;45.55;98788.50;263108;1092;115314;-62
2021/08/19 14:34:12;;;;;;;5.83;2.05;;;;;;;23.54;45.52;98793.25;263239;1093;115168;-61
2021/08/19 14:39:18;;;;;;;2.98;2.18;;;;;;;23.33;45.33;98802.90;263242;1092;117317;-60
2021/08/19 14:44:22;;;;;;;3.30;1.70;;;;;;;23.17;45.69;98799.50;262431;1092;114852;-61
2021/08/19 14:49:25;;;;;;;2.90;1.40;;;;;;;23.02;45.66;98794.00;263140;1092;115142;-61
2021/08/19 14:54:29;;;;;;;2.37;1.50;;;;;;;22.93;45.82;98797.78;263137;1092;115493;-61
2021/08/19 14:59:34;;;;;;;2.88;1.60;;;;;;;22.85;45.94;98796.78;263136;1093;115042;-61
2021/08/19 15:04:37;;;;;;;;;;;;;;;22.78;45.49;98803.11;263207;1093;115306;-61
2021/08/19 15:09:41;;;;;;;3.97;1.90;;;;;;;22.69;45.74;98802.34;262689;1092;102921;-62
2021/08/19 15:14:44;;;;;;;14.63;8.68;;;;;;;22.65;45.69;98803.69;262815;1092;115253;-61
2021/08/19 15:19:49;;;;;;;6.78;1.88;;;;;;;22.65;45.93;98798.27;263309;1093;115408;-61
2021/08/19 15:24:54;;;;;;;2.03;1.40;;;;;;;22.61;45.83;98799.66;262651;1092;115724;-61
2021/08/19 15:29:57;;;;;;;;;;;;;;;22.56;46.16;98802.06;262866;1093;115509;-61
2021/08/19 15:35:01;;;;;;;2.47;1.47;;;;;;;22.48;46.28;98800.22;263197;1093;101983;-63
2021/08/19 15:40:06;;;;;;;3.10;1.73;;;;;;;22.42;46.46;98812.64;263143;1092;115122;-62
2021/08/19 15:45:10;;;;;;;3.10;1.90;;;;;;;22.39;46.59;98814.86;263277;1092;115124;-62
2021/08/19 15:50:13;;;;;;;4.95;1.73;;;;;;;22.32;46.89;98822.02;262274;1092;114911;-63
2021/08/19 15:55:17;;;;;;;2.10;1.60;;;;;;;22.27;46.92;98824.39;263162;1093;115102;-62
2021/08/19 16:00:22;;;;;;;3.87;2.30;;;;;;;22.23;47.20;98829.31;263024;1093;115229;-62
2021/08/19 16:05:26;;;;;;;3.15;1.70;;;;;;;22.19;47.45;98825.27;262917;1091;114980;-62
2021/08/19 16:10:29;;;;;;;2.33;1.90;;;;;;;22.15;47.62;98832.91;262665;1093;115159;-62
2021/08/19 16:15:33;;;;;;;3.98;1.93;;;;;;;22.14;47.46;98830.32;262992;1093;115049;-63
2021/08/19 16:20:39;;;;;;;2.70;2.00;;;;;;;22.13;47.90;98834.90;263292;1092;115215;-61
2021/08/19 16:25:43;;;;;;;3.20;2.27;;;;;;;22.11;47.91;98831.53;263217;1093;115004;-62
2021/08/19 16:30:47;;;;;;;3.33;1.98;;;;;;;22.10;48.04;98834.41;262951;1093;115338;-62
2021/08/19 16:35:50;;;;;;;3.35;2.33;;;;;;;22.07;48.08;98827.45;263127;1092;115059;-63
2021/08/19 16:40:54;;;;;;;33.30;23.10;;;;;;;22.05;48.24;98836.80;263165;1092;115045;-61
2021/08/19 16:45:58;;;;;;;5.40;3.80;;;;;;;22.04;48.12;98835.94;263105;1092;115336;-62
2021/08/19 16:51:01;;;;;;;5.65;3.05;;;;;;;22.03;48.32;98844.25;262816;1092;115193;-64
2021/08/19 16:56:05;;;;;;;4.28;2.40;;;;;;;21.99;48.53;98840.20;262360;1093;114654;-64
2021/08/19 17:01:09;;;;;;;5.78;2.80;;;;;;;21.96;48.84;98841.39;263167;1092;115347;-62
2021/08/19 17:06:13;;;;;;;7.30;2.78;;;;;;;21.93;48.77;98844.44;263282;1092;115246;-62
2021/08/19 17:11:16;;;;;;;5.95;2.85;;;;;;;21.91;48.97;98841.08;263086;1093;115301;-61
2021/08/19 17:16:20;;;;;;;4.80;2.68;;;;;;;21.88;48.99;98836.84;263094;1091;115172;-61
2021/08/19 17:21:24;;;;;;;;;;;;;;;21.87;49.28;98845.13;262508;1092;114654;-61
2021/08/19 17:26:28;;;;;;;223.07;156.93;;;;;;;21.83;49.33;98839.20;263183;1093;101528;-62
2021/08/19 17:31:31;;;;;;;8.60;6.10;;;;;;;21.84;49.42;98846.33;263143;1092;116296;-62
2021/08/19 17:36:36;;;;;;;10.50;5.63;;;;;;;21.81;49.63;98846.67;262468;1093;115093;-61
2021/08/19 17:41:40;;;;;;;6.93;3.03;;;;;;;21.79;49.85;98843.28;263051;1093;115416;-62
2021/08/19 17:46:43;;;;;;;459.83;367.70;;;;;;;21.78;49.89;98847.02;263122;1092;114858;-62
2021/08/19 17:51:47;;;;;;;38.70;26.25;;;;;;;21.77;50.11;98850.72;263069;1092;115560;-63
2021/08/19 17:56:51;;;;;;;35.90;22.80;;;;;;;21.73;50.11;98852.92;263402;1092;115833;-61
2021/08/19 18:01:55;;;;;;;29.90;22.03;;;;;;;21.71;50.66;98854.98;263182;1092;115194;-64
2021/08/19 18:06:59;;;;;;;16.33;9.50;;;;;;;21.68;50.33;98851.77;263133;1092;115720;-65
2021/08/19 18:12:03;;;;;;;12.08;6.33;;;;;;;21.66;50.60;98864.63;263012;1092;115316;-65
2021/08/19 18:17:07;;;;;;;131.73;112.40;;;;;;;21.56;50.83;98870.20;263078;1093;115302;-65
2021/08/19 18:22:11;;;;;;;28.60;20.03;;;;;;;21.52;51.22;98873.44;262721;1092;115960;-65
2021/08/19 18:27:15;;;;;;;5.70;3.55;;;;;;;21.41;51.59;98871.91;263251;1092;115746;-66
2021/08/19 18:32:18;;;;;;;8.23;3.60;;;;;;;21.28;51.98;98869.66;262965;1091;115355;-66
2021/08/19 18:37:22;;;;;;;8.83;3.68;;;;;;;21.21;51.69;98880.31;263175;1093;114794;-68
2021/08/19 18:42:26;;;;;;;6.65;3.33;;;;;;;21.20;51.81;98875.92;263156;1093;115171;-66
2021/08/19 18:47:30;;;;;;;10.23;3.78;;;;;;;21.18;51.77;98885.22;263135;1093;115597;-62
2021/08/19 18:52:33;;;;;;;7.45;3.93;;;;;;;21.16;52.12;98885.39;263233;1092;115427;-63
2021/08/19 18:57:37;;;;;;;9.58;4.00;;;;;;;21.14;51.84;98891.98;263202;1092;115404;-64
2021/08/19 19:02:41;;;;;;;6.80;4.25;;;;;;;21.12;52.23;98893.98;263268;1093;115489;-63
2021/08/19 19:07:45;;;;;;;10.13;4.60;;;;;;;21.09;52.24;98897.87;263136;1092;114867;-63
2021/08/19 19:12:55;;;;;;;10.83;4.00;;;;;;;21.06;52.35;98902.77;263250;1093;115153;-65
2021/08/19 19:17:59;;;;;;;10.63;4.87;;;;;;;21.02;52.64;98903.13;263092;1092;115203;-59
2021/08/19 19:23:03;;;;;;;8.63;4.20;;;;;;;21.01;52.67;98904.11;263425;1092;115062;-61
2021/08/19 19:28:07;;;;;;;8.08;3.93;;;;;;;20.99;52.87;98908.86;263214;1092;114376;-67
2021/08/19 19:33:14;;;;;;;9.38;4.23;;;;;;;20.98;52.99;98917.13;263232;1092;115868;-61
2021/08/19 19:38:18;;;;;;;9.97;3.90;;;;;;;20.97;53.03;98915.44;263152;1092;115266;-62
2021/08/19 19:43:22;;;;;;;6.75;4.20;;;;;;;20.93;53.14;98914.08;263134;1093;115282;-62
2021/08/19 19:48:26;;;;;;;11.28;4.43;;;;;;;20.93;53.28;98914.92;263043;1092;115075;-64
2021/08/19 19:53:31;;;;;;;11.70;5.00;;;;;;;20.89;53.42;98916.27;263267;1092;115659;-64
2021/08/19 19:58:36;;;;;;;6.10;4.00;;;;;;;20.86;53.48;98913.89;263091;1092;115012;-62
2021/08/19 20:03:56;;;;;;;9.53;5.00;;;;;;;20.84;53.42;98906.95;262981;1093;114605;-65
2021/08/19 20:09:01;;;;;;;9.47;4.23;;;;;;;20.82;53.82;98914.36;263309;1093;114900;-65
2021/08/19 20:14:06;;;;;;;11.08;4.38;;;;;;;20.79;53.58;98916.41;263214;1092;114748;-66
2021/08/19 20:19:11;;;;;;;7.53;4.40;;;;;;;20.75;53.52;98911.46;263103;1093;115534;-65
2021/08/19 20:24:16;;;;;;;9.17;4.60;;;;;;;20.74;53.74;98920.59;262334;1093;114667;-65
2021/08/19 20:29:20;;;;;;;;;;;;;;;20.72;53.80;98914.48;263147;1092;115578;-68
2021/08/19 20:34:24;;;;;;;7.13;4.50;;;;;;;20.68;53.94;98919.38;263310;1091;101434;-65
2021/08/19 20:39:28;;;;;;;8.90;5.13;;;;;;;20.67;54.03;98922.26;263307;1092;114420;-66
2021/08/19 20:44:32;;;;;;;7.55;5.00;;;;;;;20.66;54.03;98923.28;263150;1092;114768;-66
2021/08/19 20:49:37;;;;;;;7.30;5.10;;;;;;;20.62;54.20;98922.75;263096;1092;114924;-64
2021/08/19 20:54:41;;;;;;;10.85;5.08;;;;;;;20.60;54.36;98927.47;263181;1092;114648;-66
2021/08/19 20:59:49;;;;;;;10.53;5.43;;;;;;;20.59;54.36;98930.34;262930;1093;115194;-68
2021/08/19 21:04:53;;;;;;;7.70;5.10;;;;;;;20.58;54.71;98937.58;262618;1092;116008;-64
2021/08/19 21:09:57;;;;;;;;;;;;;;;20.54;54.68;98939.77;263178;1092;115708;-65
2021/08/19 21:15:01;;;;;;;11.83;5.33;;;;;;;20.49;54.96;98952.06;263050;1092;101292;-64
2021/08/19 21:20:07;;;;;;;11.00;5.43;;;;;;;20.47;55.11;98951.36;263266;1092;114948;-64
2021/08/19 21:25:11;;;;;;;8.20;5.00;;;;;;;20.42;54.98;98954.55;263275;1093;115228;-64
2021/08/19 21:30:16;;;;;;;8.58;5.10;;;;;;;20.36;55.31;98955.19;263095;1092;114713;-63
2021/08/19 21:35:20;;;;;;;9.30;5.10;;;;;;;20.31;55.89;98961.08;263158;1093;114912;-61
2021/08/19 21:40:24;;;;;;;10.28;5.48;;;;;;;20.31;56.01;98965.61;263142;1093;115499;-59
2021/08/19 21:45:28;;;;;;;16.23;5.98;;;;;;;20.35;56.08;98975.13;263297;1092;114921;-62
2021/08/19 21:50:33;;;;;;;17.03;10.50;;;;;;;20.38;55.93;98971.23;263035;1093;115029;-63
2021/08/19 21:55:37;;;;;;;13.05;7.25;;;;;;;20.36;56.14;98973.27;262494;1092;115007;-64
2021/08/19 22:00:41;;;;;;;17.03;7.58;;;;;;;20.34;56.19;98981.52;262904;1092;114985;-62
2021/08/19 22:05:51;;;;;;;13.93;7.53;;;;;;;20.26;56.16;98985.02;261285;1092;114958;-68
2021/08/19 22:10:58;;;;;;;11.77;7.73;;;;;;;20.21;56.18;98995.47;261205;1092;114785;-64
2021/08/19 22:16:03;;;;;;;14.00;7.67;;;;;;;20.16;56.29;98992.38;261342;1092;115396;-65
2021/08/19 22:21:15;;;;;;;11.10;7.37;;;;;;;20.12;56.55;99004.52;262731;1092;115276;-66
2021/08/19 22:26:18;;;;;;;15.93;6.90;;;;;;;20.04;56.72;98999.90;263168;1092;115527;-66
2021/08/19 22:31:22;;;;;;;11.50;7.50;;;;;;;20.00;56.73;99005.75;263093;1092;115150;-64
2021/08/19 22:36:26;;;;;;;11.30;7.17;;;;;;;19.96;56.88;99001.67;263199;1092;115294;-63
2021/08/19 22:41:30;;;;;;;13.43;7.80;;;;;;;19.91;56.89;99007.55;263109;1092;115654;-68
2021/08/19 22:46:34;;;;;;;12.70;7.05;;;;;;;19.90;57.16;99013.09;263154;1092;115148;-63
2021/08/19 22:51:38;;;;;;;16.35;6.98;;;;;;;19.88;57.16;99007.86;262843;1092;115021;-65
2021/08/19 22:56:41;;;;;;;11.87;6.87;;;;;;;19.87;56.95;99019.67;263288;1093;115123;-60
2021/08/19 23:01:45;;;;;;;13.60;7.27;;;;;;;19.89;57.17;99014.10;263204;1092;115536;-63
2021/08/19 23:06:49;;;;;;;15.00;8.13;;;;;;;19.95;57.41;99016.19;263177;1093;114860;-62
2021/08/19 23:11:52;;;;;;;14.70;7.57;;;;;;;19.99;57.27;99014.88;263177;1093;115036;-65
2021/08/19 23:16:56;;;;;;;14.15;7.15;;;;;;;20.01;57.30;99011.02;263299;1092;115281;-64
2021/08/19 23:22:01;;;;;;;12.80;6.87;;;;;;;20.01;57.18;99008.31;262935;1092;115130;-62